Time;durP1;ratioP1;P1;durP2;ratioP2;P2;SDS_P1;SDS_P2;PMS_P1;PMS_P2;Temp;Humidity;BMP_temperature;BMP_pressure;BME280_temperature;BME280_humidity;BME280_pressure;Samples;Min_cycle;Max_cycle;Signal;HPM_P1;HPM_P2
2022/01/31 00:00:41;;;;;;;;;;;;;;;5.56;42.79;99786.56;4398878;32;34120;-80
2022/01/31 00:03:08;;;;;;;;;;;;;;;5.30;43.32;99792.09;4416284;32;33752;-78
2022/01/31 00:05:36;;;;;;;;;;;;;;;5.26;43.25;99809.09;4398575;32;35309;-78
2022/01/31 00:08:03;;;;;;;;;;;;;;;5.46;42.90;99809.31;4400232;32;34610;-78
2022/01/31 00:10:31;;;;;;;;;;;;;;;5.34;43.51;99823.41;4382633;32;34203;-79
2022/01/31 00:13:06;;;;;;;;;;;;;;;5.12;43.69;99812.72;4415791;32;34250;-79
2022/01/31 00:15:39;;;;;;;;;;;;;;;5.02;43.67;99801.16;4410740;32;35630;-79
2022/01/31 00:18:07;;;;;;;;;;;;;;;5.26;43.33;99817.00;4398726;32;34587;-78
2022/01/31 00:20:35;;;;;;;;;;;;;;;5.01;43.53;99809.16;4385473;32;32737;-79
2022/01/31 00:23:02;;;;;;;;;;;;;;;5.12;43.45;99801.31;4394634;32;33911;-79
2022/01/31 00:25:29;;;;;;;;;;;;;;;5.11;43.34;99815.47;4388665;32;34891;-78
2022/01/31 00:27:57;;;;;;;;;;;;;;;5.16;43.19;99808.91;4391086;32;34439;-79
2022/01/31 00:30:24;;;;;;;;;;;;;;;4.98;43.80;99796.22;4404161;32;32277;-78
2022/01/31 00:32:53;;;;;;;;;;;;;;;4.89;43.93;99795.06;4400226;32;34930;-78
2022/01/31 00:35:20;;;;;;;;;;;;;;;5.11;43.04;99789.09;4392229;32;35584;-79
2022/01/31 00:37:48;;;;;;;;;;;;;;;4.92;43.41;99791.38;4383873;32;33855;-78
2022/01/31 00:40:15;;;;;;;;;;;;;;;4.96;43.52;99777.00;4402987;32;32396;-79
2022/01/31 00:42:43;;;;;;;;;;;;;;;4.96;43.38;99771.72;4389462;32;33921;-79
2022/01/31 00:45:15;;;;;;;;;;;;;;;5.07;42.72;99772.66;4409366;32;34046;-77
2022/01/31 00:47:47;;;;;;;;;;;;;;;5.00;43.00;99771.41;4396342;32;35015;-78
2022/01/31 00:50:22;;;;;;;;;;;;;;;5.05;43.19;99749.97;4396130;32;33105;-78
2022/01/31 00:52:50;;;;;;;;;;;;;;;5.12;42.49;99754.72;4407842;32;33562;-77
2022/01/31 00:55:17;;;;;;;;;;;;;;;5.19;42.73;99740.09;4388034;32;35262;-77
2022/01/31 00:57:45;;;;;;;;;;;;;;;5.14;42.70;99760.72;4389066;32;35275;-77
2022/01/31 01:00:13;;;;;;;;;;;;;;;5.33;42.22;99747.88;4397942;32;33362;-78
2022/01/31 01:02:41;;;;;;;;;;;;;;;5.22;42.40;99752.22;4399035;32;33202;-77
2022/01/31 01:05:08;;;;;;;;;;;;;;;4.96;43.19;99753.28;4396608;32;36093;-78
2022/01/31 01:07:36;;;;;;;;;;;;;;;5.03;42.83;99749.25;4397095;32;34366;-78
2022/01/31 01:10:04;;;;;;;;;;;;;;;4.91;42.77;99760.69;4385562;32;34247;-79
2022/01/31 01:12:31;;;;;;;;;;;;;;;5.28;42.30;99763.16;4410190;32;33367;-78
2022/01/31 01:14:58;;;;;;;;;;;;;;;5.38;42.34;99763.34;4407544;32;35595;-78
2022/01/31 01:17:26;;;;;;;;;;;;;;;5.00;42.48;99781.94;4397544;32;34066;-78
2022/01/31 01:19:53;;;;;;;;;;;;;;;5.27;42.37;99782.59;4399037;32;33516;-78
2022/01/31 01:22:21;;;;;;;;;;;;;;;5.09;42.17;99780.47;4405744;32;34084;-78
2022/01/31 01:24:49;;;;;;;;;;;;;;;5.22;42.09;99778.59;4391784;32;35504;-78
2022/01/31 01:27:19;;;;;;;;;;;;;;;5.29;41.81;99783.31;4400665;32;34310;-78
2022/01/31 01:29:47;;;;;;;;;;;;;;;5.25;42.16;99787.16;4402459;32;33439;-77
2022/01/31 01:32:15;;;;;;;;;;;;;;;4.90;42.84;99788.81;4383207;32;36101;-78
2022/01/31 01:34:44;;;;;;;;;;;;;;;5.00;42.37;99787.22;4404112;32;35221;-79
2022/01/31 01:37:14;;;;;;;;;;;;;;;5.10;41.77;99790.88;4387960;32;33346;-80
2022/01/31 01:39:42;;;;;;;;;;;;;;;4.99;42.25;99782.91;4395241;32;32688;-78
2022/01/31 01:42:10;;;;;;;;;;;;;;;4.96;42.20;99782.28;4401262;32;34151;-78
2022/01/31 01:44:45;;;;;;;;;;;;;;;5.17;41.71;99784.22;4396014;32;35410;-78
2022/01/31 01:47:17;;;;;;;;;;;;;;;5.29;41.25;99772.78;4396392;32;34720;-77
2022/01/31 01:49:45;;;;;;;;;;;;;;;5.23;41.37;99753.91;4398166;32;32933;-78
2022/01/31 01:52:13;;;;;;;;;;;;;;;5.23;41.84;99753.91;4396652;32;34156;-78
2022/01/31 01:54:41;;;;;;;;;;;;;;;5.25;41.76;99752.84;4396148;32;33401;-80
2022/01/31 01:57:09;;;;;;;;;;;;;;;5.14;41.70;99741.41;4397639;32;34612;-78
2022/01/31 01:59:39;;;;;;;;;;;;;;;4.87;42.37;99728.44;4403002;32;33155;-78
2022/01/31 02:02:07;;;;;;;;;;;;;;;4.97;42.33;99728.59;4385989;32;32707;-79
2022/01/31 02:04:35;;;;;;;;;;;;;;;4.80;42.62;99727.19;4384497;32;34483;-79
2022/01/31 02:07:09;;;;;;;;;;;;;;;5.03;41.82;99707.06;4398999;32;34467;-78
2022/01/31 02:09:43;;;;;;;;;;;;;;;4.96;42.35;99719.00;4402108;32;33505;-78
2022/01/31 02:12:10;;;;;;;;;;;;;;;4.72;42.61;99713.72;4396724;32;33799;-78
2022/01/31 02:14:38;;;;;;;;;;;;;;;4.99;42.43;99717.00;4395460;32;34089;-79
2022/01/31 02:17:07;;;;;;;;;;;;;;;4.90;42.44;99725.56;4375439;32;35835;-77
2022/01/31 02:19:35;;;;;;;;;;;;;;;4.97;42.67;99720.69;4393005;32;34509;-78
2022/01/31 02:22:03;;;;;;;;;;;;;;;4.97;43.53;99731.22;4404264;32;33052;-79
2022/01/31 02:24:33;;;;;;;;;;;;;;;4.90;43.13;99720.28;4389655;32;35216;-79
2022/01/31 02:27:03;;;;;;;;;;;;;;;4.76;43.60;99716.97;4391360;32;35413;-78
2022/01/31 02:29:31;;;;;;;;;;;;;;;4.96;43.94;99722.50;4404238;32;34084;-77
2022/01/31 02:31:58;;;;;;;;;;;;;;;4.61;44.46;99715.44;4391217;32;33706;-78
2022/01/31 02:34:26;;;;;;;;;;;;;;;4.79;44.52;99714.13;4393128;32;34461;-79
2022/01/31 02:36:53;;;;;;;;;;;;;;;4.92;44.66;99707.03;4394360;32;34604;-79
2022/01/31 02:39:21;;;;;;;;;;;;;;;4.90;44.32;99714.19;4386063;32;34242;-78
2022/01/31 02:41:48;;;;;;;;;;;;;;;4.67;44.40;99705.31;4389657;32;32832;-78
2022/01/31 02:44:16;;;;;;;;;;;;;;;4.81;44.32;99701.69;4385699;32;34916;-78
2022/01/31 02:46:52;;;;;;;;;;;;;;;4.67;44.26;99697.41;4396959;32;34623;-78
2022/01/31 02:49:23;;;;;;;;;;;;;;;4.97;43.41;99681.16;4385719;32;34254;-79
2022/01/31 02:51:56;;;;;;;;;;;;;;;4.81;43.70;99683.25;4390246;32;34202;-79
2022/01/31 02:54:25;;;;;;;;;;;;;;;4.82;43.74;99674.38;4391482;32;34777;-79
2022/01/31 02:56:53;;;;;;;;;;;;;;;4.75;44.06;99675.75;4387503;32;34070;-79
2022/01/31 02:59:20;;;;;;;;;;;;;;;4.90;43.70;99678.12;4405717;32;33518;-78
2022/01/31 03:01:47;;;;;;;;;;;;;;;4.78;43.80;99673.75;4393484;32;34694;-78
2022/01/31 03:04:15;;;;;;;;;;;;;;;4.71;43.60;99671.69;4385599;32;35099;-78
2022/01/31 03:06:49;;;;;;;;;;;;;;;4.68;43.71;99662.19;4396944;32;33369;-78
2022/01/31 03:09:17;;;;;;;;;;;;;;;4.92;43.19;99663.03;4396182;32;33531;-77
2022/01/31 03:11:45;;;;;;;;;;;;;;;4.68;44.04;99649.03;4395525;32;33282;-79
2022/01/31 03:14:16;;;;;;;;;;;;;;;4.84;43.28;99665.41;4403465;32;35074;-83
2022/01/31 03:16:46;;;;;;;;;;;;;;;4.81;43.91;99667.44;4401519;32;36036;-81
2022/01/31 03:19:18;;;;;;;;;;;;;;;4.90;43.26;99666.75;4385820;32;33924;-79
2022/01/31 03:21:46;;;;;;;;;;;;;;;4.97;43.42;99662.69;4386833;32;34058;-77
2022/01/31 03:24:13;;;;;;;;;;;;;;;4.72;44.04;99674.19;4383846;32;35000;-79
2022/01/31 03:26:41;;;;;;;;;;;;;;;4.93;43.13;99658.63;4398093;32;33953;-79
2022/01/31 03:29:08;;;;;;;;;;;;;;;4.51;43.93;99664.38;4387879;32;33156;-78
2022/01/31 03:31:36;;;;;;;;;;;;;;;5.08;43.31;99662.78;4388582;32;34162;-81
2022/01/31 03:34:04;;;;;;;;;;;;;;;5.02;42.79;99656.16;4395803;32;35544;-80
2022/01/31 03:36:31;;;;;;;;;;;;;;;4.93;43.07;99650.72;4396448;32;35356;-79
2022/01/31 03:38:59;;;;;;;;;;;;;;;4.91;42.71;99665.81;4406986;32;33477;-80
2022/01/31 03:41:26;;;;;;;;;;;;;;;4.82;42.85;99648.84;4400758;32;33883;-77
2022/01/31 03:43:54;;;;;;;;;;;;;;;4.88;42.60;99647.56;4388047;32;34767;-78
2022/01/31 03:46:23;;;;;;;;;;;;;;;4.98;42.77;99659.13;4396235;32;34487;-78
2022/01/31 03:48:50;;;;;;;;;;;;;;;4.83;43.21;99657.59;4406389;32;34047;-78
2022/01/31 03:51:22;;;;;;;;;;;;;;;5.17;41.73;99665.56;4387824;32;35055;-78
2022/01/31 03:53:50;;;;;;;;;;;;;;;5.04;42.46;99654.25;4388090;32;33922;-79
2022/01/31 03:56:17;;;;;;;;;;;;;;;5.03;41.51;99671.03;4409896;32;34468;-80
2022/01/31 03:58:46;;;;;;;;;;;;;;;4.97;41.93;99660.91;4399928;32;32855;-78
2022/01/31 04:01:13;;;;;;;;;;;;;;;5.22;40.94;99644.97;4396059;32;34139;-78
2022/01/31 04:03:41;;;;;;;;;;;;;;;5.22;41.06;99637.06;4403431;32;35425;-78
2022/01/31 04:06:08;;;;;;;;;;;;;;;5.22;40.99;99637.06;4409239;32;34717;-78
2022/01/31 04:08:35;;;;;;;;;;;;;;;5.00;41.19;99621.13;4387032;32;35349;-79
2022/01/31 04:11:02;;;;;;;;;;;;;;;5.14;40.76;99617.47;4391978;32;34058;-78
2022/01/31 04:13:30;;;;;;;;;;;;;;;5.16;40.63;99613.78;4403492;32;34130;-78
2022/01/31 04:15:57;;;;;;;;;;;;;;;5.07;40.95;99617.09;4389459;32;35394;-79
2022/01/31 04:18:24;;;;;;;;;;;;;;;5.31;40.60;99614.41;4408083;32;33722;-79
2022/01/31 04:20:52;;;;;;;;;;;;;;;5.25;40.31;99609.59;4396215;32;34017;-78
2022/01/31 04:23:20;;;;;;;;;;;;;;;5.24;40.51;99602.63;4396747;32;33498;-79
2022/01/31 04:28:21;;;;;;;;;;;;;;;5.21;40.49;99590.56;4387093;32;34420;-78
2022/01/31 04:31:14;;;;;;;;;;;;;;;5.55;39.91;99587.84;4384848;32;33204;-78
2022/01/31 04:33:41;;;;;;;;;;;;;;;5.76;39.21;99587.97;4393437;32;34984;-78
2022/01/31 04:36:10;;;;;;;;;;;;;;;5.81;38.93;99594.63;4407516;32;34016;-79
2022/01/31 04:38:37;;;;;;;;;;;;;;;5.65;39.21;99604.66;4384354;32;33040;-79
2022/01/31 04:41:04;;;;;;;;;;;;;;;5.45;39.41;99607.13;4394362;32;33474;-78
2022/01/31 04:43:32;;;;;;;;;;;;;;;5.56;39.37;99612.44;4395570;32;35149;-78
2022/01/31 04:46:02;;;;;;;;;;;;;;;5.46;39.86;99619.37;4401962;32;35622;-79
2022/01/31 04:48:29;;;;;;;;;;;;;;;5.49;39.61;99622.63;4394990;32;32475;-79
2022/01/31 04:50:56;;;;;;;;;;;;;;;5.35;39.96;99598.25;4395000;32;34020;-78
2022/01/31 04:53:23;;;;;;;;;;;;;;;4.80;40.62;99582.25;4383978;32;36157;-78
2022/01/31 04:55:50;;;;;;;;;;;;;;;5.23;40.68;99574.59;4399018;32;34060;-78
2022/01/31 04:58:19;;;;;;;;;;;;;;;5.05;40.78;99565.44;4395284;32;33368;-78
2022/01/31 05:00:46;;;;;;;;;;;;;;;5.25;40.48;99556.84;4390471;32;32999;-78
2022/01/31 05:03:17;;;;;;;;;;;;;;;5.06;41.15;99551.28;4408482;32;35442;-78
2022/01/31 05:05:44;;;;;;;;;;;;;;;4.88;41.41;99569.34;4395365;32;34866;-78
2022/01/31 05:08:12;;;;;;;;;;;;;;;5.02;41.40;99577.06;4397747;32;35189;-78
2022/01/31 05:10:44;;;;;;;;;;;;;;;5.25;41.12;99584.06;4404796;32;34393;-78
2022/01/31 05:13:12;;;;;;;;;;;;;;;5.11;40.90;99576.38;4389219;32;35917;-78
2022/01/31 05:15:40;;;;;;;;;;;;;;;5.38;40.92;99576.91;4391233;32;35213;-79
2022/01/31 05:18:07;;;;;;;;;;;;;;;4.96;41.53;99580.16;4394709;32;32763;-77
2022/01/31 05:20:34;;;;;;;;;;;;;;;4.73;42.27;99575.72;4400856;32;34949;-80
2022/01/31 05:23:01;;;;;;;;;;;;;;;4.85;42.21;99574.84;4396519;32;36028;-78
2022/01/31 05:25:29;;;;;;;;;;;;;;;5.00;42.03;99564.94;4400134;32;34704;-78
2022/01/31 05:27:56;;;;;;;;;;;;;;;5.12;41.83;99556.12;4396955;32;34110;-77
2022/01/31 05:30:23;;;;;;;;;;;;;;;4.66;42.80;99556.09;4398461;32;35122;-78
2022/01/31 05:32:50;;;;;;;;;;;;;;;4.78;42.53;99546.41;4400685;32;35358;-80
2022/01/31 05:35:17;;;;;;;;;;;;;;;4.43;43.26;99538.47;4395715;32;33869;-78
2022/01/31 05:37:45;;;;;;;;;;;;;;;4.77;42.55;99529.78;4397599;32;32204;-78
2022/01/31 05:40:12;;;;;;;;;;;;;;;4.87;42.48;99520.22;4397971;32;34321;-78
2022/01/31 05:42:39;;;;;;;;;;;;;;;4.62;42.85;99517.72;4383574;32;35318;-78
2022/01/31 05:45:07;;;;;;;;;;;;;;;4.51;43.23;99511.59;4386325;32;34874;-78
2022/01/31 05:47:35;;;;;;;;;;;;;;;4.78;42.70;99507.72;4395989;32;33377;-78
2022/01/31 05:50:03;;;;;;;;;;;;;;;4.88;42.65;99505.22;4401447;32;32988;-78
2022/01/31 05:52:30;;;;;;;;;;;;;;;4.84;42.74;99499.38;4386327;32;36246;-78
2022/01/31 05:54:57;;;;;;;;;;;;;;;4.59;43.17;99498.66;4405600;32;35029;-78
2022/01/31 05:57:25;;;;;;;;;;;;;;;4.73;43.41;99509.03;4399021;32;33672;-80
2022/01/31 05:59:52;;;;;;;;;;;;;;;4.98;42.83;99512.34;4404474;32;35076;-78
2022/01/31 06:02:19;;;;;;;;;;;;;;;5.00;42.67;99512.22;4404172;32;35361;-79
2022/01/31 06:04:47;;;;;;;;;;;;;;;5.08;42.80;99512.50;4393133;32;35535;-77
2022/01/31 06:07:15;;;;;;;;;;;;;;;4.87;43.34;99514.09;4403139;32;34587;-78
2022/01/31 06:09:42;;;;;;;;;;;;;;;4.89;43.22;99515.66;4399841;32;34020;-80
2022/01/31 06:12:11;;;;;;;;;;;;;;;4.83;43.51;99518.75;4398772;32;35736;-78
2022/01/31 06:14:40;;;;;;;;;;;;;;;5.13;43.04;99513.81;4392030;32;34409;-78
2022/01/31 06:17:07;;;;;;;;;;;;;;;4.88;43.50;99521.91;4409747;32;31676;-78
2022/01/31 06:19:34;;;;;;;;;;;;;;;4.60;44.31;99530.19;4396532;32;33645;-80
2022/01/31 06:22:02;;;;;;;;;;;;;;;4.88;43.87;99521.91;4386126;32;35346;-78
2022/01/31 06:24:32;;;;;;;;;;;;;;;4.62;44.44;99525.62;4394930;32;34384;-78
2022/01/31 06:27:04;;;;;;;;;;;;;;;4.56;44.47;99515.56;4388417;32;33387;-80
2022/01/31 06:29:33;;;;;;;;;;;;;;;4.30;45.67;99513.16;4390626;32;34914;-78
2022/01/31 06:32:25;;;;;;;;;;;;;;;4.79;44.49;99512.03;4382772;27;34827;-89
2022/01/31 06:34:55;;;;;;;;;;;;;;;4.89;43.89;99513.03;4363428;32;34207;-89
2022/01/31 06:37:23;;;;;;;;;;;;;;;4.95;44.31;99502.03;4353470;32;33485;-88
2022/01/31 06:39:51;;;;;;;;;;;;;;;4.95;44.22;99495.91;4354547;32;33983;-88
2022/01/31 06:42:19;;;;;;;;;;;;;;;4.95;44.38;99490.63;4354618;32;35397;-90
2022/01/31 06:44:48;;;;;;;;;;;;;;;4.49;45.08;99476.59;4364172;32;34234;-87
2022/01/31 06:47:16;;;;;;;;;;;;;;;4.47;45.32;99470.62;4337171;32;32181;-88
2022/01/31 06:50:00;;;;;;;;;;;;;;;4.49;45.58;99464.28;4350479;32;34408;-89
2022/01/31 06:52:34;;;;;;;;;;;;;;;4.42;45.96;99462.25;4366792;32;36148;-91
2022/01/31 06:55:23;;;;;;;;;;;;;;;4.41;45.88;99466.66;4366843;32;34525;-91
2022/01/31 06:57:52;;;;;;;;;;;;;;;4.75;45.53;99449.16;4366797;32;33349;-91
2022/01/31 07:00:39;;;;;;;;;;;;;;;4.80;45.22;99445.22;4357143;32;32751;-90
2022/01/31 07:03:27;;;;;;;;;;;;;;;4.81;45.34;99443.44;4370387;32;35190;-91
2022/01/31 07:06:14;;;;;;;;;;;;;;;4.84;45.39;99427.38;4370501;32;34298;-89
2022/01/31 07:08:42;;;;;;;;;;;;;;;5.02;44.69;99418.91;4377549;32;32000;-88
2022/01/31 07:11:14;;;;;;;;;;;;;;;5.23;44.17;99404.03;4345649;32;34603;-89
2022/01/31 07:13:44;;;;;;;;;;;;;;;5.00;44.64;99423.44;4357550;32;36314;-89
2022/01/31 07:16:15;;;;;;;;;;;;;;;5.39;44.03;99420.34;4364658;32;35180;-87
2022/01/31 07:19:02;;;;;;;;;;;;;;;5.23;44.76;99434.81;4361428;32;33033;-89
2022/01/31 07:21:44;;;;;;;;;;;;;;;5.54;43.55;99429.66;4382198;32;33891;-89
2022/01/31 07:27:24;;;;;;;;;;;;;;;6.07;42.52;99426.22;4357922;32;35350;-88
2022/01/31 07:30:05;;;;;;;;;;;;;;;5.84;42.98;99438.66;4379063;32;32341;-89
2022/01/31 07:32:33;;;;;;;;;;;;;;;5.77;43.14;99431.31;4382887;32;34332;-85
2022/01/31 07:35:03;;;;;;;;;;;;;;;6.12;42.48;99419.59;4352308;32;35446;-83
2022/01/31 07:37:35;;;;;;;;;;;;;;;6.20;42.71;99417.16;4387378;32;34206;-86
2022/01/31 07:40:10;;;;;;;;;;;;;;;6.08;42.88;99412.06;4361359;32;33362;-89
2022/01/31 07:42:39;;;;;;;;;;;;;;;5.99;42.98;99416.28;4388402;32;33077;-90
2022/01/31 07:45:08;;;;;;;;;;;;;;;6.25;42.56;99403.59;4360149;32;34731;-88
2022/01/31 07:47:39;;;;;;;;;;;;;;;6.34;42.74;99401.00;4388488;32;36004;-92
2022/01/31 07:50:08;;;;;;;;;;;;;;;6.26;42.72;99397.34;4367375;32;32191;-91
2022/01/31 07:52:37;;;;;;;;;;;;;;;6.46;42.22;99407.94;4367912;32;34194;-91
2022/01/31 07:55:05;;;;;;;;;;;;;;;6.18;43.05;99397.97;4357707;32;36195;-87
2022/01/31 07:57:46;;;;;;;;;;;;;;;6.24;42.89;99402.72;4366836;32;34478;-90
2022/01/31 08:00:14;;;;;;;;;;;;;;;6.20;43.09;99411.88;4360203;32;32081;-88
2022/01/31 08:02:52;;;;;;;;;;;;;;;6.19;43.03;99409.38;4375755;32;33278;-93
2022/01/31 08:05:36;;;;;;;;;;;;;;;6.13;43.72;99409.84;4359616;32;35111;-88
2022/01/31 08:08:05;;;;;;;;;;;;;;;5.86;44.02;99415.59;4367515;32;34419;-89
2022/01/31 08:10:36;;;;;;;;;;;;;;;5.77;44.00;99408.38;4352117;32;33776;-88
2022/01/31 08:13:07;;;;;;;;;;;;;;;6.14;44.01;99411.56;4351410;32;33155;-89
2022/01/31 08:18:41;;;;;;;;;;;;;;;6.54;43.55;99380.84;4366333;32;34940;-88
2022/01/31 08:21:13;;;;;;;;;;;;;;;6.24;43.89;99381.59;4362385;32;34071;-88
2022/01/31 08:23:45;;;;;;;;;;;;;;;6.05;44.55;99376.16;4378014;32;34785;-89
2022/01/31 08:26:16;;;;;;;;;;;;;;;6.51;43.03;99363.44;4373659;32;36029;-90
2022/01/31 08:28:54;;;;;;;;;;;;;;;6.15;43.94;99369.16;4377975;32;33973;-88
2022/01/31 08:31:28;;;;;;;;;;;;;;;6.67;42.89;99368.28;4364110;32;33187;-89
2022/01/31 08:36:30;;;;;;;;;;;;;;;6.72;42.78;99371.38;4365120;32;34327;-88
2022/01/31 08:39:08;;;;;;;;;;;;;;;6.66;43.16;99377.16;4360723;32;35033;-91
2022/01/31 08:41:37;;;;;;;;;;;;;;;6.14;44.16;99375.41;4375223;32;33955;-88
2022/01/31 08:44:06;;;;;;;;;;;;;;;6.45;43.41;99379.00;4362880;32;33057;-88
2022/01/31 08:46:35;;;;;;;;;;;;;;;6.20;44.03;99368.78;4368721;32;35946;-93
2022/01/31 08:49:03;;;;;;;;;;;;;;;6.37;43.85;99369.06;4337952;32;33579;-90
2022/01/31 08:51:34;;;;;;;;;;;;;;;6.59;43.78;99362.78;4383037;32;34453;-90
2022/01/31 08:54:07;;;;;;;;;;;;;;;7.12;42.57;99364.34;4362248;32;33960;-87
2022/01/31 08:56:44;;;;;;;;;;;;;;;6.84;43.38;99359.75;4375969;32;35266;-88
2022/01/31 08:59:18;;;;;;;;;;;;;;;7.09;42.64;99364.59;4361451;32;34765;-90
2022/01/31 09:02:04;;;;;;;;;;;;;;;7.00;43.13;99363.56;4360715;32;32978;-89
2022/01/31 09:04:47;;;;;;;;;;;;;;;7.06;42.69;99355.13;4379224;32;34436;-88
2022/01/31 09:07:18;;;;;;;;;;;;;;;7.05;43.37;99352.59;4380284;32;35833;-91
2022/01/31 09:09:53;;;;;;;;;;;;;;;6.57;44.15;99352.38;4354804;32;35310;-89
2022/01/31 09:12:26;;;;;;;;;;;;;;;6.55;45.00;99346.37;4357883;32;33436;-90
2022/01/31 09:14:55;;;;;;;;;;;;;;;6.40;44.47;99349.47;4352604;32;35689;-87
2022/01/31 09:17:44;;;;;;;;;;;;;;;6.23;45.45;99350.06;4377962;32;33941;-88
2022/01/31 09:20:12;;;;;;;;;;;;;;;6.53;44.96;99340.38;4379126;32;33218;-88
2022/01/31 09:22:46;;;;;;;;;;;;;;;6.80;44.04;99334.56;4355785;32;33739;-88
2022/01/31 09:25:20;;;;;;;;;;;;;;;6.59;44.38;99341.66;4368446;32;33745;-87
2022/01/31 09:27:50;;;;;;;;;;;;;;;7.18;43.49;99342.66;4363102;32;34997;-88
2022/01/31 09:30:21;;;;;;;;;;;;;;;7.30;42.90;99334.47;4369884;32;36001;-87
2022/01/31 09:32:58;;;;;;;;;;;;;;;7.10;42.22;99335.34;4369466;32;33277;-88
2022/01/31 09:35:36;;;;;;;;;;;;;;;7.12;42.44;99320.22;4382041;32;34272;-90
2022/01/31 09:38:08;;;;;;;;;;;;;;;7.21;42.62;99307.97;4385222;32;35752;-90
2022/01/31 09:40:38;;;;;;;;;;;;;;;7.24;41.44;99299.75;4373077;32;35562;-87
2022/01/31 09:51:04;;;;;;;;;;;;;;;6.97;41.90;99275.72;4369702;32;35601;-88
2022/01/31 09:53:43;;;;;;;;;;;;;;;7.52;40.91;99261.94;4372383;32;32720;-91
2022/01/31 09:56:12;;;;;;;;;;;;;;;7.16;41.64;99250.19;4378702;32;34223;-89
2022/01/31 09:58:41;;;;;;;;;;;;;;;7.21;41.13;99252.44;4372054;32;36028;-89
2022/01/31 10:01:14;;;;;;;;;;;;;;;7.05;42.14;99247.66;4373400;32;34990;-90
2022/01/31 10:03:51;;;;;;;;;;;;;;;7.29;40.76;99229.59;4369518;32;33438;-89
2022/01/31 10:06:24;;;;;;;;;;;;;;;7.64;40.92;99229.06;4362437;32;34250;-90
2022/01/31 10:09:01;;;;;;;;;;;;;;;7.72;40.47;99224.75;4353985;32;34635;-87
2022/01/31 10:17:24;;;;;;;;;;;;;;;7.78;40.39;99226.00;4371176;32;34561;-90
2022/01/31 10:20:14;;;;;;;;;;;;;;;7.81;40.15;99215.13;4368110;32;35350;-87
2022/01/31 10:22:42;;;;;;;;;;;;;;;8.02;40.34;99219.25;4364689;32;33143;-89
2022/01/31 10:25:16;;;;;;;;;;;;;;;7.90;40.66;99211.62;4371759;32;32750;-90
2022/01/31 10:28:15;;;;;;;;;;;;;;;7.86;39.83;99197.84;4364703;32;32814;-89
2022/01/31 10:30:45;;;;;;;;;;;;;;;8.34;39.65;99177.41;4377274;32;35746;-91
2022/01/31 10:33:37;;;;;;;;;;;;;;;;;;;;;
2022/01/31 10:36:52;;;;;;;;;;;;;;;8.01;39.55;99179.69;4347469;32;31890;-88
2022/01/31 10:51:15;;;;;;;;;;;;;;;7.59;40.08;99157.19;4368834;32;34339;-90
2022/01/31 10:53:54;;;;;;;;;;;;;;;7.75;39.60;99142.38;4363724;32;33739;-91
2022/01/31 10:56:23;;;;;;;;;;;;;;;7.96;39.85;99137.75;4357018;32;33363;-88
2022/01/31 10:59:02;;;;;;;;;;;;;;;7.98;40.12;99129.63;4368739;32;33881;-91
2022/01/31 11:01:30;;;;;;;;;;;;;;;8.02;39.79;99128.38;4369244;32;33694;-88
2022/01/31 11:04:17;;;;;;;;;;;;;;;8.43;38.74;99119.03;4352309;32;35383;-90
2022/01/31 11:06:47;;;;;;;;;;;;;;;8.30;38.27;99122.19;4360885;32;34622;-91
2022/01/31 11:09:16;;;;;;;;;;;;;;;7.93;39.17;99113.38;4365363;32;33199;-89
2022/01/31 11:11:45;;;;;;;;;;;;;;;7.98;38.93;99108.44;4363030;32;33344;-91
2022/01/31 11:14:14;;;;;;;;;;;;;;;7.83;38.90;99109.91;4361688;32;37150;-90
2022/01/31 11:16:49;;;;;;;;;;;;;;;8.10;39.40;99102.00;4358577;32;34815;-91
2022/01/31 11:19:23;;;;;;;;;;;;;;;7.89;39.07;99086.31;4375624;32;32983;-90
2022/01/31 11:21:52;;;;;;;;;;;;;;;7.60;39.39;99069.69;4338379;32;33037;-89
2022/01/31 11:24:30;;;;;;;;;;;;;;;7.55;39.39;99056.03;4384853;32;35435;-89
2022/01/31 11:27:06;;;;;;;;;;;;;;;7.91;38.82;99046.47;4364618;32;34844;-90
2022/01/31 11:29:45;;;;;;;;;;;;;;;7.95;39.06;99031.94;4383372;32;34111;-89
2022/01/31 11:32:22;;;;;;;;;;;;;;;7.79;39.43;99024.63;4363713;32;33781;-89
2022/01/31 11:34:52;;;;;;;;;;;;;;;8.22;38.31;99013.44;4361379;32;34812;-90
2022/01/31 11:37:21;;;;;;;;;;;;;;;8.07;38.22;99010.41;4362151;32;33701;-89
2022/01/31 11:40:11;;;;;;;;;;;;;;;8.19;38.24;99019.03;4360537;32;33155;-89
2022/01/31 11:42:45;;;;;;;;;;;;;;;8.24;38.61;99020.25;4364882;32;34117;-90
2022/01/31 11:45:15;;;;;;;;;;;;;;;8.35;39.00;99014.75;4375442;32;35328;-90
2022/01/31 11:47:43;;;;;;;;;;;;;;;8.37;38.48;99015.44;4363292;32;34757;-90
2022/01/31 11:50:20;;;;;;;;;;;;;;;8.34;37.93;98996.34;4377911;32;33567;-90
2022/01/31 11:52:58;;;;;;;;;;;;;;;8.65;37.79;98966.66;4378683;32;32342;-89
2022/01/31 11:55:35;;;;;;;;;;;;;;;9.06;37.04;98942.13;4370645;32;34087;-87
2022/01/31 11:58:04;;;;;;;;;;;;;;;8.92;37.18;98966.56;4378026;32;34968;-91
2022/01/31 12:00:32;;;;;;;;;;;;;;;8.78;37.50;98972.41;4353974;32;32246;-90
2022/01/31 12:03:01;;;;;;;;;;;;;;;8.54;37.44;98986.28;4362106;32;33714;-89
2022/01/31 12:05:29;;;;;;;;;;;;;;;9.05;37.17;98982.91;4375922;32;35785;-91
2022/01/31 12:08:07;;;;;;;;;;;;;;;9.15;36.99;98962.41;4348851;32;34608;-89
2022/01/31 12:10:38;;;;;;;;;;;;;;;9.21;37.21;98977.72;4365468;32;33219;-90
2022/01/31 12:29:35;;;;;;;;;;;;;;;7.93;39.58;98986.25;4383294;27;36236;-90
2022/01/31 12:35:02;;;;;;;;;;;;;;;7.47;40.26;98965.13;4393839;32;20343;-79
2022/01/31 12:37:35;;;;;;;;;;;;;;;7.77;40.13;98954.25;4386150;32;34753;-80
2022/01/31 12:40:06;;;;;;;;;;;;;;;7.99;38.94;98933.50;4403153;32;37226;-79
2022/01/31 12:45:13;;;;;;;;;;;;;;;8.06;39.51;98924.00;4411252;32;33151;-81
2022/01/31 12:48:01;;;;;;;;;;;;;;;7.89;39.60;98937.19;4397845;32;34160;-82
2022/01/31 12:50:30;;;;;;;;;;;;;;;8.27;38.93;98931.66;4390953;32;33636;-81
2022/01/31 12:53:03;;;;;;;;;;;;;;;8.43;38.60;98925.53;4402264;32;34501;-81
2022/01/31 12:55:32;;;;;;;;;;;;;;;8.17;39.32;98929.06;4393274;32;32837;-80
2022/01/31 12:57:59;;;;;;;;;;;;;;;8.07;39.37;98930.97;4400087;32;35031;-83
2022/01/31 13:00:38;;;;;;;;;;;;;;;7.85;39.73;98909.34;4386951;32;36092;-80
2022/01/31 13:03:33;;;;;;;;;;;;;;;8.10;39.31;98911.28;4387515;32;34826;-80
2022/01/31 13:06:27;;;;;;;;;;;;;;;7.67;39.46;98901.38;4401179;32;34175;-81
2022/01/31 13:08:59;;;;;;;;;;;;;;;7.16;40.11;98916.91;4405131;32;34579;-81
2022/01/31 13:11:29;;;;;;;;;;;;;;;7.55;40.34;98904.37;4374697;32;35443;-80
2022/01/31 13:14:24;;;;;;;;;;;;;;;7.72;39.42;98893.81;4407314;32;34362;-81
2022/01/31 13:17:15;;;;;;;;;;;;;;;7.90;39.40;98885.88;4408646;32;33534;-80
2022/01/31 13:19:54;;;;;;;;;;;;;;;7.85;39.62;98882.88;4373504;32;33798;-81
2022/01/31 13:22:38;;;;;;;;;;;;;;;7.96;40.07;98869.41;4389453;32;35692;-80
2022/01/31 13:25:08;;;;;;;;;;;;;;;8.15;39.65;98862.16;4385527;32;36120;-83
2022/01/31 13:27:55;;;;;;;;;;;;;;;8.58;39.23;98859.56;4403857;32;32362;-80
2022/01/31 13:30:28;;;;;;;;;;;;;;;8.28;39.30;98859.16;4374944;32;34171;-81
2022/01/31 13:32:56;;;;;;;;;;;;;;;8.29;39.50;98848.41;4407749;32;35316;-80
2022/01/31 13:35:28;;;;;;;;;;;;;;;8.25;39.60;98849.69;4385180;32;36662;-80
2022/01/31 13:38:07;;;;;;;;;;;;;;;8.67;38.95;98848.88;4388230;32;31626;-80
2022/01/31 13:40:44;;;;;;;;;;;;;;;8.24;39.47;98847.19;4383503;32;32363;-81
2022/01/31 13:43:34;;;;;;;;;;;;;;;7.87;40.15;98841.19;4384517;32;34956;-80
2022/01/31 13:46:25;;;;;;;;;;;;;;;8.12;39.83;98843.91;4397886;32;34416;-81
2022/01/31 13:51:45;;;;;;;;;;;;;;;8.56;38.35;98840.34;4406037;32;33854;-80
2022/01/31 13:54:20;;;;;;;;;;;;;;;8.06;39.49;98849.84;4396811;32;34713;-80
2022/01/31 13:56:51;;;;;;;;;;;;;;;7.88;39.57;98845.50;4389798;32;34728;-80
2022/01/31 13:59:39;;;;;;;;;;;;;;;7.89;39.96;98844.50;4406410;32;33827;-82
2022/01/31 14:02:08;;;;;;;;;;;;;;;7.85;40.29;98854.56;4369536;32;32690;-81
2022/01/31 14:04:37;;;;;;;;;;;;;;;7.61;40.98;98850.81;4408774;32;36102;-81
2022/01/31 14:07:04;;;;;;;;;;;;;;;7.42;40.77;98845.66;4398395;32;35508;-81
2022/01/31 14:09:32;;;;;;;;;;;;;;;7.69;40.75;98848.28;4376210;32;33087;-81
2022/01/31 14:12:00;;;;;;;;;;;;;;;7.24;41.62;98858.84;4385754;32;34477;-82
2022/01/31 14:14:28;;;;;;;;;;;;;;;7.03;41.52;98860.88;4407998;32;33840;-81
2022/01/31 14:16:55;;;;;;;;;;;;;;;6.67;41.78;98852.88;4405979;32;35056;-82
2022/01/31 14:19:24;;;;;;;;;;;;;;;6.49;42.87;98849.31;4402419;32;33825;-81
2022/01/31 14:21:54;;;;;;;;;;;;;;;6.87;42.45;98841.28;4384721;32;34063;-80